Billinge, United Kingdom
Current Conditions -  °F | °C
As of 7:20 PM on Friday 24 Oct 2014 (Local Time) from EGGP Reporting Station
Clear Clear  
Wind Chill: 10°   Ceiling: Unl
Heat Index: 10°   Visibility: 6mi
Dew Point:   Wind: 6mph
Humidity: 82%   Direction: 230°SW
Pressure: 29.88"   Gusts: NA
Location:  53.5°N, 2.71°W
Report Text: EGGP 241820Z 23005KT CAVOK 10/07 Q1012
Loading
Personal Weather Stations






























Interactive Weather Map
Tropical Storm Tracking
New forecast layout! Learn more

10-Day Weather Forecast

Advertisements
Track Severe Weather on mobile